sensor_id;sensor_type;location;lat;lon;timestamp;P1;durP1;ratioP1;P2;durP2;ratioP2
77099;SDS011;66602;48.922;2.414;2023-02-28T00:00:21;7.88;;;7.00;;
77099;SDS011;66602;48.922;2.414;2023-02-28T00:02:47;7.63;;;6.97;;
77099;SDS011;66602;48.922;2.414;2023-02-28T00:05:14;6.05;;;5.75;;
77099;SDS011;66602;48.922;2.414;2023-02-28T00:07:41;7.32;;;6.70;;
77099;SDS011;66602;48.922;2.414;2023-02-28T00:10:08;9.38;;;7.05;;
77099;SDS011;66602;48.922;2.414;2023-02-28T00:12:35;8.13;;;7.43;;
77099;SDS011;66602;48.922;2.414;2023-02-28T00:15:02;9.80;;;6.55;;
77099;SDS011;66602;48.922;2.414;2023-02-28T00:17:30;7.80;;;7.13;;
77099;SDS011;66602;48.922;2.414;2023-02-28T00:19:56;7.25;;;6.78;;
77099;SDS011;66602;48.922;2.414;2023-02-28T00:22:21;11.77;;;6.22;;
77099;SDS011;66602;48.922;2.414;2023-02-28T00:24:49;7.60;;;6.85;;
77099;SDS011;66602;48.922;2.414;2023-02-28T00:27:14;7.40;;;6.85;;
77099;SDS011;66602;48.922;2.414;2023-02-28T00:29:40;7.90;;;7.00;;
77099;SDS011;66602;48.922;2.414;2023-02-28T00:32:05;7.45;;;6.97;;
77099;SDS011;66602;48.922;2.414;2023-02-28T00:34:31;8.07;;;6.97;;
77099;SDS011;66602;48.922;2.414;2023-02-28T00:37:03;8.13;;;7.32;;
77099;SDS011;66602;48.922;2.414;2023-02-28T00:39:36;6.72;;;6.25;;
77099;SDS011;66602;48.922;2.414;2023-02-28T00:42:03;7.60;;;6.95;;
77099;SDS011;66602;48.922;2.414;2023-02-28T00:44:29;8.88;;;6.85;;
77099;SDS011;66602;48.922;2.414;2023-02-28T00:46:55;7.95;;;6.63;;
77099;SDS011;66602;48.922;2.414;2023-02-28T00:49:21;7.40;;;6.72;;
77099;SDS011;66602;48.922;2.414;2023-02-28T00:51:48;8.35;;;6.50;;
77099;SDS011;66602;48.922;2.414;2023-02-28T00:54:14;7.57;;;6.95;;
77099;SDS011;66602;48.922;2.414;2023-02-28T00:56:39;7.10;;;6.65;;
77099;SDS011;66602;48.922;2.414;2023-02-28T00:59:05;6.90;;;6.45;;
77099;SDS011;66602;48.922;2.414;2023-02-28T01:01:30;7.43;;;6.93;;
77099;SDS011;66602;48.922;2.414;2023-02-28T01:03:56;7.50;;;6.90;;
77099;SDS011;66602;48.922;2.414;2023-02-28T01:06:22;6.75;;;6.30;;
77099;SDS011;66602;48.922;2.414;2023-02-28T01:08:49;10.07;;;6.88;;
77099;SDS011;66602;48.922;2.414;2023-02-28T01:11:16;6.72;;;6.30;;
77099;SDS011;66602;48.922;2.414;2023-02-28T01:13:43;7.43;;;6.70;;
77099;SDS011;66602;48.922;2.414;2023-02-28T01:16:10;7.00;;;6.40;;
77099;SDS011;66602;48.922;2.414;2023-02-28T01:18:37;7.35;;;6.85;;
77099;SDS011;66602;48.922;2.414;2023-02-28T01:21:30;8.55;;;7.10;;
77099;SDS011;66602;48.922;2.414;2023-02-28T01:23:56;8.23;;;6.47;;
77099;SDS011;66602;48.922;2.414;2023-02-28T01:26:25;6.43;;;6.13;;
77099;SDS011;66602;48.922;2.414;2023-02-28T01:28:54;9.82;;;7.20;;
77099;SDS011;66602;48.922;2.414;2023-02-28T01:31:20;7.03;;;6.53;;
77099;SDS011;66602;48.922;2.414;2023-02-28T01:33:49;6.90;;;6.40;;
77099;SDS011;66602;48.922;2.414;2023-02-28T01:36:16;8.30;;;6.57;;
77099;SDS011;66602;48.922;2.414;2023-02-28T01:38:43;7.32;;;6.85;;
77099;SDS011;66602;48.922;2.414;2023-02-28T01:41:12;8.88;;;7.63;;
77099;SDS011;66602;48.922;2.414;2023-02-28T01:46:10;8.02;;;7.30;;
77099;SDS011;66602;48.922;2.414;2023-02-28T01:48:41;8.07;;;7.32;;
77099;SDS011;66602;48.922;2.414;2023-02-28T01:51:13;7.45;;;6.85;;
77099;SDS011;66602;48.922;2.414;2023-02-28T01:53:53;7.90;;;7.20;;
77099;SDS011;66602;48.922;2.414;2023-02-28T01:56:24;6.50;;;6.20;;
77099;SDS011;66602;48.922;2.414;2023-02-28T01:58:54;8.10;;;7.32;;
77099;SDS011;66602;48.922;2.414;2023-02-28T02:01:21;8.60;;;7.05;;
77099;SDS011;66602;48.922;2.414;2023-02-28T02:03:49;7.70;;;7.20;;
77099;SDS011;66602;48.922;2.414;2023-02-28T02:06:24;7.57;;;6.88;;
77099;SDS011;66602;48.922;2.414;2023-02-28T02:08:52;7.50;;;7.00;;
77099;SDS011;66602;48.922;2.414;2023-02-28T02:11:18;7.85;;;7.25;;
77099;SDS011;66602;48.922;2.414;2023-02-28T02:25:07;6.47;;;6.07;;
77099;SDS011;66602;48.922;2.414;2023-02-28T02:36:07;6.72;;;6.15;;
77099;SDS011;66602;48.922;2.414;2023-02-28T02:41:19;6.30;;;5.90;;
77099;SDS011;66602;48.922;2.414;2023-02-28T02:43:54;8.35;;;6.38;;
77099;SDS011;66602;48.922;2.414;2023-02-28T02:46:29;6.45;;;5.90;;
77099;SDS011;66602;48.922;2.414;2023-02-28T02:48:59;5.68;;;5.28;;
77099;SDS011;66602;48.922;2.414;2023-02-28T02:51:30;5.40;;;5.00;;
77099;SDS011;66602;48.922;2.414;2023-02-28T02:54:19;6.25;;;5.88;;
77099;SDS011;66602;48.922;2.414;2023-02-28T02:56:48;7.63;;;6.22;;
77099;SDS011;66602;48.922;2.414;2023-02-28T02:59:16;5.80;;;5.40;;
77099;SDS011;66602;48.922;2.414;2023-02-28T03:01:50;7.07;;;6.43;;
77099;SDS011;66602;48.922;2.414;2023-02-28T03:04:21;6.30;;;5.90;;
77099;SDS011;66602;48.922;2.414;2023-02-28T03:06:50;6.57;;;6.07;;
77099;SDS011;66602;48.922;2.414;2023-02-28T03:09:24;5.93;;;5.53;;
77099;SDS011;66602;48.922;2.414;2023-02-28T03:11:51;6.30;;;5.70;;
77099;SDS011;66602;48.922;2.414;2023-02-28T03:28:15;6.00;;;5.47;;
77099;SDS011;66602;48.922;2.414;2023-02-28T03:30:51;6.18;;;5.78;;
77099;SDS011;66602;48.922;2.414;2023-02-28T03:33:21;5.45;;;4.93;;
77099;SDS011;66602;48.922;2.414;2023-02-28T03:35:55;8.43;;;5.85;;
77099;SDS011;66602;48.922;2.414;2023-02-28T03:38:28;5.53;;;5.22;;
77099;SDS011;66602;48.922;2.414;2023-02-28T03:41:00;5.40;;;5.00;;
77099;SDS011;66602;48.922;2.414;2023-02-28T03:43:32;5.97;;;5.47;;
77099;SDS011;66602;48.922;2.414;2023-02-28T03:46:00;6.13;;;5.65;;
77099;SDS011;66602;48.922;2.414;2023-02-28T03:48:31;6.28;;;5.70;;
77099;SDS011;66602;48.922;2.414;2023-02-28T03:51:03;6.03;;;5.65;;
77099;SDS011;66602;48.922;2.414;2023-02-28T03:53:35;6.25;;;5.65;;
77099;SDS011;66602;48.922;2.414;2023-02-28T03:58:38;6.40;;;5.80;;
77099;SDS011;66602;48.922;2.414;2023-02-28T04:01:35;5.35;;;5.03;;
77099;SDS011;66602;48.922;2.414;2023-02-28T04:04:24;5.88;;;5.47;;
77099;SDS011;66602;48.922;2.414;2023-02-28T04:06:51;6.43;;;5.40;;
77099;SDS011;66602;48.922;2.414;2023-02-28T04:09:17;5.50;;;5.10;;
77099;SDS011;66602;48.922;2.414;2023-02-28T04:11:52;6.60;;;5.80;;
77099;SDS011;66602;48.922;2.414;2023-02-28T04:14:18;10.60;;;6.18;;
77099;SDS011;66602;48.922;2.414;2023-02-28T04:16:44;5.55;;;5.13;;
77099;SDS011;66602;48.922;2.414;2023-02-28T04:19:10;6.78;;;6.18;;
77099;SDS011;66602;48.922;2.414;2023-02-28T04:21:38;6.32;;;5.82;;
77099;SDS011;66602;48.922;2.414;2023-02-28T04:24:06;6.47;;;5.97;;
77099;SDS011;66602;48.922;2.414;2023-02-28T04:26:39;6.90;;;6.45;;
77099;SDS011;66602;48.922;2.414;2023-02-28T04:29:08;6.30;;;5.82;;
77099;SDS011;66602;48.922;2.414;2023-02-28T04:31:35;6.65;;;6.25;;
77099;SDS011;66602;48.922;2.414;2023-02-28T04:34:00;7.05;;;6.55;;
77099;SDS011;66602;48.922;2.414;2023-02-28T04:36:26;6.28;;;5.88;;
77099;SDS011;66602;48.922;2.414;2023-02-28T04:38:52;7.07;;;6.30;;
77099;SDS011;66602;48.922;2.414;2023-02-28T04:41:18;6.82;;;6.32;;
77099;SDS011;66602;48.922;2.414;2023-02-28T04:43:46;6.72;;;6.18;;
77099;SDS011;66602;48.922;2.414;2023-02-28T04:46:12;7.45;;;6.85;;
77099;SDS011;66602;48.922;2.414;2023-02-28T04:48:38;7.30;;;6.80;;
77099;SDS011;66602;48.922;2.414;2023-02-28T04:51:07;7.43;;;6.45;;
77099;SDS011;66602;48.922;2.414;2023-02-28T04:53:36;6.85;;;6.10;;
77099;SDS011;66602;48.922;2.414;2023-02-28T04:56:02;7.03;;;6.38;;
77099;SDS011;66602;48.922;2.414;2023-02-28T04:58:28;7.35;;;6.75;;
77099;SDS011;66602;48.922;2.414;2023-02-28T05:01:05;6.63;;;6.18;;
77099;SDS011;66602;48.922;2.414;2023-02-28T05:03:48;8.38;;;6.95;;
77099;SDS011;66602;48.922;2.414;2023-02-28T05:06:15;7.70;;;7.10;;
77099;SDS011;66602;48.922;2.414;2023-02-28T05:08:40;8.27;;;7.00;;
77099;SDS011;66602;48.922;2.414;2023-02-28T05:11:08;7.28;;;6.78;;
77099;SDS011;66602;48.922;2.414;2023-02-28T05:13:44;11.27;;;6.60;;
77099;SDS011;66602;48.922;2.414;2023-02-28T05:16:10;7.40;;;5.93;;
77099;SDS011;66602;48.922;2.414;2023-02-28T05:18:36;8.38;;;6.97;;
77099;SDS011;66602;48.922;2.414;2023-02-28T05:21:03;6.50;;;6.00;;
77099;SDS011;66602;48.922;2.414;2023-02-28T05:23:29;6.65;;;6.15;;
77099;SDS011;66602;48.922;2.414;2023-02-28T05:25:55;7.93;;;7.10;;
77099;SDS011;66602;48.922;2.414;2023-02-28T05:28:21;6.95;;;6.35;;
77099;SDS011;66602;48.922;2.414;2023-02-28T05:30:47;7.00;;;6.22;;
77099;SDS011;66602;48.922;2.414;2023-02-28T05:33:13;6.18;;;5.63;;
77099;SDS011;66602;48.922;2.414;2023-02-28T05:35:39;8.60;;;6.80;;
77099;SDS011;66602;48.922;2.414;2023-02-28T05:38:06;7.68;;;7.10;;
77099;SDS011;66602;48.922;2.414;2023-02-28T05:40:32;8.27;;;7.55;;
77099;SDS011;66602;48.922;2.414;2023-02-28T05:42:58;9.45;;;7.28;;
77099;SDS011;66602;48.922;2.414;2023-02-28T05:45:23;8.90;;;7.88;;
77099;SDS011;66602;48.922;2.414;2023-02-28T05:47:52;12.25;;;8.43;;
77099;SDS011;66602;48.922;2.414;2023-02-28T05:50:19;9.02;;;8.25;;
77099;SDS011;66602;48.922;2.414;2023-02-28T05:52:48;11.20;;;8.63;;
77099;SDS011;66602;48.922;2.414;2023-02-28T05:55:15;13.75;;;9.10;;
77099;SDS011;66602;48.922;2.414;2023-02-28T05:57:41;14.63;;;9.82;;
77099;SDS011;66602;48.922;2.414;2023-02-28T06:00:07;10.13;;;8.75;;
77099;SDS011;66602;48.922;2.414;2023-02-28T06:02:34;9.68;;;8.88;;
77099;SDS011;66602;48.922;2.414;2023-02-28T06:04:59;13.80;;;10.05;;
77099;SDS011;66602;48.922;2.414;2023-02-28T06:07:25;16.02;;;10.52;;
77099;SDS011;66602;48.922;2.414;2023-02-28T06:09:50;11.63;;;10.32;;
77099;SDS011;66602;48.922;2.414;2023-02-28T06:12:16;10.77;;;9.75;;
77099;SDS011;66602;48.922;2.414;2023-02-28T06:14:42;15.10;;;10.90;;
77099;SDS011;66602;48.922;2.414;2023-02-28T06:17:08;19.88;;;10.60;;
77099;SDS011;66602;48.922;2.414;2023-02-28T06:19:34;18.02;;;10.95;;
77099;SDS011;66602;48.922;2.414;2023-02-28T06:22:04;12.45;;;11.15;;
77099;SDS011;66602;48.922;2.414;2023-02-28T06:24:29;13.35;;;12.05;;
77099;SDS011;66602;48.922;2.414;2023-02-28T06:26:57;14.02;;;11.90;;
77099;SDS011;66602;48.922;2.414;2023-02-28T06:29:30;14.55;;;10.90;;
77099;SDS011;66602;48.922;2.414;2023-02-28T06:31:59;12.93;;;11.52;;
77099;SDS011;66602;48.922;2.414;2023-02-28T06:34:25;12.82;;;11.60;;
77099;SDS011;66602;48.922;2.414;2023-02-28T06:36:51;17.75;;;12.95;;
77099;SDS011;66602;48.922;2.414;2023-02-28T06:39:17;16.38;;;13.45;;
77099;SDS011;66602;48.922;2.414;2023-02-28T06:41:43;13.50;;;12.25;;
77099;SDS011;66602;48.922;2.414;2023-02-28T06:44:13;15.23;;;13.05;;
77099;SDS011;66602;48.922;2.414;2023-02-28T06:46:40;13.85;;;12.55;;
77099;SDS011;66602;48.922;2.414;2023-02-28T06:49:07;16.70;;;13.00;;
77099;SDS011;66602;48.922;2.414;2023-02-28T06:51:37;16.52;;;12.88;;
77099;SDS011;66602;48.922;2.414;2023-02-28T06:54:07;18.63;;;13.10;;
77099;SDS011;66602;48.922;2.414;2023-02-28T06:56:34;17.05;;;13.07;;
77099;SDS011;66602;48.922;2.414;2023-02-28T06:59:00;18.52;;;13.15;;
77099;SDS011;66602;48.922;2.414;2023-02-28T07:01:28;18.83;;;13.35;;
77099;SDS011;66602;48.922;2.414;2023-02-28T07:03:55;18.20;;;14.20;;
77099;SDS011;66602;48.922;2.414;2023-02-28T07:06:21;29.08;;;14.65;;
77099;SDS011;66602;48.922;2.414;2023-02-28T07:08:48;22.90;;;14.95;;
77099;SDS011;66602;48.922;2.414;2023-02-28T07:11:14;20.65;;;13.48;;
77099;SDS011;66602;48.922;2.414;2023-02-28T07:13:40;20.48;;;14.85;;
77099;SDS011;66602;48.922;2.414;2023-02-28T07:16:07;17.35;;;13.90;;
77099;SDS011;66602;48.922;2.414;2023-02-28T07:18:35;16.60;;;12.90;;
77099;SDS011;66602;48.922;2.414;2023-02-28T07:21:02;18.75;;;13.85;;
77099;SDS011;66602;48.922;2.414;2023-02-28T07:23:32;15.43;;;13.77;;
77099;SDS011;66602;48.922;2.414;2023-02-28T07:25:58;18.50;;;13.52;;
77099;SDS011;66602;48.922;2.414;2023-02-28T07:28:24;15.27;;;13.32;;
77099;SDS011;66602;48.922;2.414;2023-02-28T07:30:50;16.88;;;13.52;;
77099;SDS011;66602;48.922;2.414;2023-02-28T07:33:16;18.20;;;12.80;;
77099;SDS011;66602;48.922;2.414;2023-02-28T07:35:42;13.88;;;12.27;;
77099;SDS011;66602;48.922;2.414;2023-02-28T07:38:07;12.68;;;11.48;;
77099;SDS011;66602;48.922;2.414;2023-02-28T07:40:33;13.23;;;10.90;;
77099;SDS011;66602;48.922;2.414;2023-02-28T07:43:00;12.30;;;10.88;;
77099;SDS011;66602;48.922;2.414;2023-02-28T07:45:27;12.43;;;11.15;;
77099;SDS011;66602;48.922;2.414;2023-02-28T07:47:57;12.60;;;11.60;;
77099;SDS011;66602;48.922;2.414;2023-02-28T07:50:23;17.17;;;10.85;;
77099;SDS011;66602;48.922;2.414;2023-02-28T07:52:48;11.05;;;10.07;;
77099;SDS011;66602;48.922;2.414;2023-02-28T07:55:14;11.25;;;9.88;;
77099;SDS011;66602;48.922;2.414;2023-02-28T07:57:41;13.63;;;11.60;;
77099;SDS011;66602;48.922;2.414;2023-02-28T08:00:08;15.82;;;11.25;;
77099;SDS011;66602;48.922;2.414;2023-02-28T08:02:35;11.43;;;10.35;;
77099;SDS011;66602;48.922;2.414;2023-02-28T08:05:01;10.50;;;9.63;;
77099;SDS011;66602;48.922;2.414;2023-02-28T08:07:27;11.43;;;10.07;;
77099;SDS011;66602;48.922;2.414;2023-02-28T08:09:53;18.30;;;10.65;;
77099;SDS011;66602;48.922;2.414;2023-02-28T08:12:18;12.82;;;10.15;;
77099;SDS011;66602;48.922;2.414;2023-02-28T08:14:44;9.70;;;8.85;;
77099;SDS011;66602;48.922;2.414;2023-02-28T08:17:10;11.07;;;9.40;;
77099;SDS011;66602;48.922;2.414;2023-02-28T08:19:36;10.43;;;9.45;;
77099;SDS011;66602;48.922;2.414;2023-02-28T08:22:01;9.88;;;9.07;;
77099;SDS011;66602;48.922;2.414;2023-02-28T08:24:27;14.25;;;9.50;;
77099;SDS011;66602;48.922;2.414;2023-02-28T08:26:53;10.30;;;9.50;;
77099;SDS011;66602;48.922;2.414;2023-02-28T08:29:20;9.48;;;8.65;;
77099;SDS011;66602;48.922;2.414;2023-02-28T08:31:47;9.93;;;9.13;;
77099;SDS011;66602;48.922;2.414;2023-02-28T08:34:13;9.73;;;8.82;;
77099;SDS011;66602;48.922;2.414;2023-02-28T08:36:41;13.85;;;10.23;;
77099;SDS011;66602;48.922;2.414;2023-02-28T08:39:07;14.88;;;10.07;;
77099;SDS011;66602;48.922;2.414;2023-02-28T08:41:34;12.07;;;10.15;;
77099;SDS011;66602;48.922;2.414;2023-02-28T08:44:00;14.40;;;9.93;;
77099;SDS011;66602;48.922;2.414;2023-02-28T08:46:25;9.23;;;8.63;;
77099;SDS011;66602;48.922;2.414;2023-02-28T08:48:51;13.02;;;9.43;;
77099;SDS011;66602;48.922;2.414;2023-02-28T08:51:19;10.00;;;8.93;;
77099;SDS011;66602;48.922;2.414;2023-02-28T08:53:51;10.18;;;9.43;;
77099;SDS011;66602;48.922;2.414;2023-02-28T08:56:17;10.95;;;9.95;;
77099;SDS011;66602;48.922;2.414;2023-02-28T08:58:43;10.23;;;9.27;;
77099;SDS011;66602;48.922;2.414;2023-02-28T09:01:18;9.73;;;9.02;;
77099;SDS011;66602;48.922;2.414;2023-02-28T09:03:45;9.52;;;8.68;;
77099;SDS011;66602;48.922;2.414;2023-02-28T09:06:12;12.60;;;9.23;;
77099;SDS011;66602;48.922;2.414;2023-02-28T09:08:38;9.60;;;8.85;;
77099;SDS011;66602;48.922;2.414;2023-02-28T09:11:05;9.05;;;8.15;;
77099;SDS011;66602;48.922;2.414;2023-02-28T09:13:31;11.68;;;8.38;;
77099;SDS011;66602;48.922;2.414;2023-02-28T09:15:58;12.75;;;7.95;;
77099;SDS011;66602;48.922;2.414;2023-02-28T09:18:27;9.30;;;8.68;;
77099;SDS011;66602;48.922;2.414;2023-02-28T09:20:53;8.77;;;8.05;;
77099;SDS011;66602;48.922;2.414;2023-02-28T09:23:19;9.20;;;8.38;;
77099;SDS011;66602;48.922;2.414;2023-02-28T09:25:48;12.77;;;8.73;;
77099;SDS011;66602;48.922;2.414;2023-02-28T09:28:16;8.80;;;7.93;;
77099;SDS011;66602;48.922;2.414;2023-02-28T09:30:43;8.38;;;7.82;;
77099;SDS011;66602;48.922;2.414;2023-02-28T09:33:10;8.75;;;7.53;;
77099;SDS011;66602;48.922;2.414;2023-02-28T09:35:36;8.05;;;7.35;;
77099;SDS011;66602;48.922;2.414;2023-02-28T09:38:02;8.23;;;7.30;;
77099;SDS011;66602;48.922;2.414;2023-02-28T09:40:28;10.00;;;7.18;;
77099;SDS011;66602;48.922;2.414;2023-02-28T09:43:00;7.35;;;6.82;;
77099;SDS011;66602;48.922;2.414;2023-02-28T09:45:29;7.10;;;6.60;;
77099;SDS011;66602;48.922;2.414;2023-02-28T09:48:14;7.63;;;6.97;;
77099;SDS011;66602;48.922;2.414;2023-02-28T09:53:22;7.97;;;7.20;;
77099;SDS011;66602;48.922;2.414;2023-02-28T09:55:59;8.05;;;7.35;;
77099;SDS011;66602;48.922;2.414;2023-02-28T09:58:56;7.95;;;7.15;;
77099;SDS011;66602;48.922;2.414;2023-02-28T10:04:03;8.27;;;6.22;;
77099;SDS011;66602;48.922;2.414;2023-02-28T10:06:30;6.80;;;6.00;;
77099;SDS011;66602;48.922;2.414;2023-02-28T10:09:02;6.88;;;6.25;;
77099;SDS011;66602;48.922;2.414;2023-02-28T10:11:32;6.95;;;6.10;;
77099;SDS011;66602;48.922;2.414;2023-02-28T10:14:00;6.07;;;5.68;;
77099;SDS011;66602;48.922;2.414;2023-02-28T10:16:35;11.00;;;4.88;;
77099;SDS011;66602;48.922;2.414;2023-02-28T10:19:11;6.28;;;5.88;;
77099;SDS011;66602;48.922;2.414;2023-02-28T10:24:39;5.57;;;5.13;;
77099;SDS011;66602;48.922;2.414;2023-02-28T10:29:48;16.40;;;5.63;;
77099;SDS011;66602;48.922;2.414;2023-02-28T10:32:16;6.15;;;5.75;;
77099;SDS011;66602;48.922;2.414;2023-02-28T10:34:59;5.47;;;5.18;;
77099;SDS011;66602;48.922;2.414;2023-02-28T10:37:25;6.28;;;5.30;;
77099;SDS011;66602;48.922;2.414;2023-02-28T10:39:52;5.32;;;5.03;;
77099;SDS011;66602;48.922;2.414;2023-02-28T10:42:22;5.25;;;4.95;;
77099;SDS011;66602;48.922;2.414;2023-02-28T10:45:03;5.00;;;4.28;;
77099;SDS011;66602;48.922;2.414;2023-02-28T10:47:31;5.30;;;4.13;;
77099;SDS011;66602;48.922;2.414;2023-02-28T10:49:59;4.80;;;4.50;;
77099;SDS011;66602;48.922;2.414;2023-02-28T10:52:58;4.28;;;3.80;;
77099;SDS011;66602;48.922;2.414;2023-02-28T10:58:02;4.63;;;4.43;;
77099;SDS011;66602;48.922;2.414;2023-02-28T11:00:32;4.40;;;4.10;;
77099;SDS011;66602;48.922;2.414;2023-02-28T11:03:01;4.50;;;4.20;;
77099;SDS011;66602;48.922;2.414;2023-02-28T11:05:31;4.75;;;4.38;;
77099;SDS011;66602;48.922;2.414;2023-02-28T11:08:03;4.70;;;4.40;;
77099;SDS011;66602;48.922;2.414;2023-02-28T11:10:53;4.63;;;4.32;;
77099;SDS011;66602;48.922;2.414;2023-02-28T11:13:31;5.28;;;4.35;;
77099;SDS011;66602;48.922;2.414;2023-02-28T11:15:59;4.20;;;4.00;;
77099;SDS011;66602;48.922;2.414;2023-02-28T11:18:55;4.35;;;4.15;;
77099;SDS011;66602;48.922;2.414;2023-02-28T11:22:01;4.53;;;4.22;;
77099;SDS011;66602;48.922;2.414;2023-02-28T11:24:42;8.88;;;4.50;;
77099;SDS011;66602;48.922;2.414;2023-02-28T11:28:24;6.93;;;4.13;;
77099;SDS011;66602;48.922;2.414;2023-02-28T11:33:01;4.18;;;3.97;;
77099;SDS011;66602;48.922;2.414;2023-02-28T11:36:08;7.28;;;4.00;;
77099;SDS011;66602;48.922;2.414;2023-02-28T11:38:39;4.28;;;3.95;;
77099;SDS011;66602;48.922;2.414;2023-02-28T11:41:12;3.92;;;3.72;;
77099;SDS011;66602;48.922;2.414;2023-02-28T11:44:01;3.80;;;3.50;;
77099;SDS011;66602;48.922;2.414;2023-02-28T11:46:35;3.72;;;3.53;;
77099;SDS011;66602;48.922;2.414;2023-02-28T12:00:13;7.78;;;5.93;;
77099;SDS011;66602;48.922;2.414;2023-02-28T12:10:53;3.50;;;3.30;;
77099;SDS011;66602;48.922;2.414;2023-02-28T12:13:38;3.58;;;3.38;;
77099;SDS011;66602;48.922;2.414;2023-02-28T12:19:03;3.53;;;3.33;;
77099;SDS011;66602;48.922;2.414;2023-02-28T12:27:28;3.42;;;3.22;;
77099;SDS011;66602;48.922;2.414;2023-02-28T12:30:04;3.75;;;3.40;;
77099;SDS011;66602;48.922;2.414;2023-02-28T12:32:44;3.17;;;3.07;;
77099;SDS011;66602;48.922;2.414;2023-02-28T12:35:14;3.58;;;3.30;;
77099;SDS011;66602;48.922;2.414;2023-02-28T12:37:57;2.95;;;2.75;;
77099;SDS011;66602;48.922;2.414;2023-02-28T12:40:33;3.13;;;2.83;;
77099;SDS011;66602;48.922;2.414;2023-02-28T12:43:07;3.42;;;2.80;;
77099;SDS011;66602;48.922;2.414;2023-02-28T12:45:39;3.15;;;2.90;;
77099;SDS011;66602;48.922;2.414;2023-02-28T12:48:11;3.50;;;3.30;;
77099;SDS011;66602;48.922;2.414;2023-02-28T12:50:49;3.10;;;2.90;;
77099;SDS011;66602;48.922;2.414;2023-02-28T12:53:22;3.25;;;3.05;;
77099;SDS011;66602;48.922;2.414;2023-02-28T12:55:51;3.10;;;2.80;;
77099;SDS011;66602;48.922;2.414;2023-02-28T13:03:40;3.10;;;2.90;;
77099;SDS011;66602;48.922;2.414;2023-02-28T13:09:19;3.15;;;2.90;;
77099;SDS011;66602;48.922;2.414;2023-02-28T13:11:50;3.47;;;3.28;;
77099;SDS011;66602;48.922;2.414;2023-02-28T13:19:59;3.97;;;3.67;;
77099;SDS011;66602;48.922;2.414;2023-02-28T13:22:37;8.20;;;3.65;;
77099;SDS011;66602;48.922;2.414;2023-02-28T13:25:50;4.35;;;3.10;;
77099;SDS011;66602;48.922;2.414;2023-02-28T13:27:54;3.40;;;3.20;;
77099;SDS011;66602;48.922;2.414;2023-02-28T13:35:59;2.35;;;2.25;;
77099;SDS011;66602;48.922;2.414;2023-02-28T13:38:43;2.63;;;2.50;;
77099;SDS011;66602;48.922;2.414;2023-02-28T13:44:22;3.92;;;2.70;;
77099;SDS011;66602;48.922;2.414;2023-02-28T13:49:47;2.75;;;2.63;;
77099;SDS011;66602;48.922;2.414;2023-02-28T13:52:18;3.05;;;2.78;;
77099;SDS011;66602;48.922;2.414;2023-02-28T14:08:35;2.40;;;2.30;;
77099;SDS011;66602;48.922;2.414;2023-02-28T14:11:43;3.28;;;2.97;;
77099;SDS011;66602;48.922;2.414;2023-02-28T14:14:06;5.38;;;2.70;;
77099;SDS011;66602;48.922;2.414;2023-02-28T14:16:41;3.17;;;2.97;;
77099;SDS011;66602;48.922;2.414;2023-02-28T14:19:14;3.42;;;3.22;;
77099;SDS011;66602;48.922;2.414;2023-02-28T14:33:25;3.78;;;2.90;;
77099;SDS011;66602;48.922;2.414;2023-02-28T14:38:39;3.58;;;2.88;;
77099;SDS011;66602;48.922;2.414;2023-02-28T14:41:28;3.42;;;3.20;;
77099;SDS011;66602;48.922;2.414;2023-02-28T14:44:12;7.57;;;3.35;;
77099;SDS011;66602;48.922;2.414;2023-02-28T14:46:39;3.50;;;3.20;;
77099;SDS011;66602;48.922;2.414;2023-02-28T14:49:07;3.65;;;3.08;;
77099;SDS011;66602;48.922;2.414;2023-02-28T14:51:45;3.60;;;3.42;;
77099;SDS011;66602;48.922;2.414;2023-02-28T14:54:14;2.95;;;2.85;;
77099;SDS011;66602;48.922;2.414;2023-02-28T14:56:41;3.42;;;3.22;;
77099;SDS011;66602;48.922;2.414;2023-02-28T14:59:25;6.43;;;4.22;;
77099;SDS011;66602;48.922;2.414;2023-02-28T15:02:18;3.70;;;3.50;;
77099;SDS011;66602;48.922;2.414;2023-02-28T15:04:56;3.67;;;3.47;;
77099;SDS011;66602;48.922;2.414;2023-02-28T15:07:24;6.60;;;3.58;;
77099;SDS011;66602;48.922;2.414;2023-02-28T15:13:00;3.28;;;3.08;;
77099;SDS011;66602;48.922;2.414;2023-02-28T15:15:42;3.10;;;2.90;;
77099;SDS011;66602;48.922;2.414;2023-02-28T15:18:31;3.70;;;3.50;;
77099;SDS011;66602;48.922;2.414;2023-02-28T15:21:25;3.35;;;3.15;;
77099;SDS011;66602;48.922;2.414;2023-02-28T15:26:28;3.28;;;3.17;;
77099;SDS011;66602;48.922;2.414;2023-02-28T15:29:13;3.05;;;2.95;;
77099;SDS011;66602;48.922;2.414;2023-02-28T15:31:43;2.83;;;2.63;;
77099;SDS011;66602;48.922;2.414;2023-02-28T15:34:17;3.15;;;2.95;;
77099;SDS011;66602;48.922;2.414;2023-02-28T15:36:46;3.30;;;3.20;;
77099;SDS011;66602;48.922;2.414;2023-02-28T15:39:24;5.97;;;3.63;;
77099;SDS011;66602;48.922;2.414;2023-02-28T15:41:55;4.43;;;4.00;;
77099;SDS011;66602;48.922;2.414;2023-02-28T15:44:35;2.97;;;2.87;;
77099;SDS011;66602;48.922;2.414;2023-02-28T15:47:05;3.88;;;3.05;;
77099;SDS011;66602;48.922;2.414;2023-02-28T15:49:37;2.97;;;2.67;;
77099;SDS011;66602;48.922;2.414;2023-02-28T15:52:14;3.45;;;3.25;;
77099;SDS011;66602;48.922;2.414;2023-02-28T15:54:42;4.07;;;3.13;;
77099;SDS011;66602;48.922;2.414;2023-02-28T15:57:17;2.97;;;2.88;;
77099;SDS011;66602;48.922;2.414;2023-02-28T15:59:54;3.10;;;3.00;;
77099;SDS011;66602;48.922;2.414;2023-02-28T16:02:30;3.58;;;3.08;;
77099;SDS011;66602;48.922;2.414;2023-02-28T16:07:31;2.88;;;2.70;;
77099;SDS011;66602;48.922;2.414;2023-02-28T16:09:58;3.25;;;3.13;;
77099;SDS011;66602;48.922;2.414;2023-02-28T16:12:26;3.22;;;3.00;;
77099;SDS011;66602;48.922;2.414;2023-02-28T16:14:54;3.97;;;3.30;;
77099;SDS011;66602;48.922;2.414;2023-02-28T16:17:31;3.30;;;3.00;;
77099;SDS011;66602;48.922;2.414;2023-02-28T16:19:59;3.40;;;3.20;;
77099;SDS011;66602;48.922;2.414;2023-02-28T16:22:25;3.05;;;2.85;;
77099;SDS011;66602;48.922;2.414;2023-02-28T16:24:51;3.75;;;3.42;;
77099;SDS011;66602;48.922;2.414;2023-02-28T16:27:18;3.72;;;3.42;;
77099;SDS011;66602;48.922;2.414;2023-02-28T16:29:47;3.15;;;2.95;;
77099;SDS011;66602;48.922;2.414;2023-02-28T16:32:14;8.93;;;3.22;;
77099;SDS011;66602;48.922;2.414;2023-02-28T16:34:40;3.67;;;3.47;;
77099;SDS011;66602;48.922;2.414;2023-02-28T16:37:13;8.65;;;5.10;;
77099;SDS011;66602;48.922;2.414;2023-02-28T16:39:42;4.13;;;3.03;;
77099;SDS011;66602;48.922;2.414;2023-02-28T16:42:14;3.28;;;3.08;;
77099;SDS011;66602;48.922;2.414;2023-02-28T16:44:46;3.22;;;3.00;;
77099;SDS011;66602;48.922;2.414;2023-02-28T16:47:12;3.50;;;3.30;;
77099;SDS011;66602;48.922;2.414;2023-02-28T16:49:38;3.58;;;3.28;;
77099;SDS011;66602;48.922;2.414;2023-02-28T16:52:06;4.63;;;4.32;;
77099;SDS011;66602;48.922;2.414;2023-02-28T16:54:31;4.90;;;3.67;;
77099;SDS011;66602;48.922;2.414;2023-02-28T16:56:57;4.45;;;4.25;;
77099;SDS011;66602;48.922;2.414;2023-02-28T16:59:23;5.60;;;5.30;;
77099;SDS011;66602;48.922;2.414;2023-02-28T17:01:51;5.90;;;5.38;;
77099;SDS011;66602;48.922;2.414;2023-02-28T17:04:17;4.57;;;4.38;;
77099;SDS011;66602;48.922;2.414;2023-02-28T17:06:42;4.97;;;4.78;;
77099;SDS011;66602;48.922;2.414;2023-02-28T17:09:11;4.93;;;4.63;;
77099;SDS011;66602;48.922;2.414;2023-02-28T17:11:41;4.80;;;4.50;;
77099;SDS011;66602;48.922;2.414;2023-02-28T17:14:06;4.50;;;4.30;;
77099;SDS011;66602;48.922;2.414;2023-02-28T17:16:33;4.53;;;4.32;;
77099;SDS011;66602;48.922;2.414;2023-02-28T17:19:02;5.88;;;5.00;;
77099;SDS011;66602;48.922;2.414;2023-02-28T17:21:30;7.40;;;4.53;;
77099;SDS011;66602;48.922;2.414;2023-02-28T17:23:56;3.58;;;3.47;;
77099;SDS011;66602;48.922;2.414;2023-02-28T17:26:24;8.55;;;4.03;;
77099;SDS011;66602;48.922;2.414;2023-02-28T17:28:51;4.03;;;3.15;;